createdAt,value
2023-05-21T00:00:30.085Z,14.54
2023-05-21T00:01:26.907Z,14.66
2023-05-21T00:02:23.854Z,14.19
2023-05-21T00:03:21.318Z,14.43
2023-05-21T00:04:18.173Z,13.97
2023-05-21T00:05:16.990Z,14.86
2023-05-21T00:06:13.944Z,14.90
2023-05-21T00:07:12.662Z,14.48
2023-05-21T00:08:09.527Z,14.06
2023-05-21T00:09:06.721Z,14.24
2023-05-21T00:10:03.641Z,14.11
2023-05-21T00:11:00.549Z,13.88
2023-05-21T00:11:57.359Z,13.76
2023-05-21T00:12:54.153Z,14.31
2023-05-21T00:13:50.992Z,13.78
2023-05-21T00:14:47.782Z,13.88
2023-05-21T00:15:44.604Z,14.35
2023-05-21T00:16:41.525Z,14.56
2023-05-21T00:17:38.530Z,14.30
2023-05-21T00:18:35.343Z,14.59
2023-05-21T00:19:33.777Z,13.56
2023-05-21T00:20:32.423Z,13.78
2023-05-21T00:21:29.805Z,14.59
2023-05-21T00:22:26.612Z,14.64
2023-05-21T00:23:23.340Z,14.64
2023-05-21T00:24:20.422Z,14.21
2023-05-21T00:25:17.195Z,13.23
2023-05-21T00:26:13.986Z,14.58
2023-05-21T00:27:11.349Z,14.27
2023-05-21T00:28:08.151Z,13.43
2023-05-21T00:29:05.007Z,13.71
2023-05-21T00:30:02.107Z,13.99
2023-05-21T00:30:58.919Z,14.54
2023-05-21T00:31:56.145Z,14.48
2023-05-21T00:32:52.959Z,14.32
2023-05-21T00:33:49.802Z,14.35
2023-05-21T00:34:47.430Z,14.19
2023-05-21T00:35:44.390Z,14.16
2023-05-21T00:36:45.373Z,14.20
2023-05-21T00:37:42.190Z,13.64
2023-05-21T00:38:38.970Z,14.25
2023-05-21T00:39:36.557Z,14.22
2023-05-21T00:40:35.517Z,14.48
2023-05-21T00:41:32.294Z,14.11
2023-05-21T00:42:30.718Z,13.59
2023-05-21T00:43:27.729Z,13.83
2023-05-21T00:44:25.658Z,12.21
2023-05-21T00:45:24.057Z,14.21
2023-05-21T00:46:21.683Z,14.31
2023-05-21T00:47:18.669Z,13.84
2023-05-21T00:48:16.049Z,14.09
2023-05-21T00:49:14.780Z,13.91
2023-05-21T00:50:12.328Z,13.92
2023-05-21T00:51:09.760Z,13.38
2023-05-21T00:52:07.365Z,13.21
2023-05-21T00:53:04.952Z,13.66
2023-05-21T00:54:02.514Z,13.93
2023-05-21T00:54:59.533Z,12.95
2023-05-21T00:55:56.862Z,14.27
2023-05-21T00:56:54.817Z,13.38
2023-05-21T00:57:51.811Z,14.15
2023-05-21T00:58:48.847Z,13.27
2023-05-21T00:59:47.264Z,14.21
2023-05-21T01:00:44.753Z,14.01
2023-05-21T01:01:43.746Z,14.23
2023-05-21T01:02:40.836Z,14.06
2023-05-21T01:03:38.568Z,13.47
2023-05-21T01:04:36.261Z,13.91
2023-05-21T01:05:33.882Z,13.85
2023-05-21T01:06:34.636Z,14.20
2023-05-21T01:07:34.928Z,14.32
2023-05-21T01:08:34.942Z,14.30
2023-05-21T01:09:32.348Z,14.14
2023-05-21T01:10:30.535Z,13.32
2023-05-21T01:11:39.920Z,14.15
2023-05-21T01:12:39.872Z,13.26
2023-05-21T01:13:41.035Z,13.37
2023-05-21T01:14:40.186Z,14.03
2023-05-21T01:15:38.414Z,14.17
2023-05-21T01:16:42.210Z,14.00
2023-05-21T01:17:41.521Z,14.02
2023-05-21T01:18:38.720Z,14.05
2023-05-21T01:19:36.363Z,13.07
2023-05-21T01:20:33.468Z,13.97
2023-05-21T01:21:31.178Z,13.19
2023-05-21T01:22:32.505Z,13.49
2023-05-21T01:23:29.889Z,14.38
2023-05-21T01:24:26.728Z,14.32
2023-05-21T01:25:24.176Z,14.08
2023-05-21T01:26:39.850Z,13.95
2023-05-21T01:27:36.890Z,14.09
2023-05-21T01:28:34.760Z,14.11
2023-05-21T01:29:31.748Z,13.28
2023-05-21T01:30:28.843Z,13.91
2023-05-21T01:31:57.197Z,13.87
2023-05-21T01:33:04.161Z,13.87
2023-05-21T01:34:07.918Z,13.88
2023-05-21T01:35:11.354Z,13.27
2023-05-21T01:36:26.824Z,13.94
2023-05-21T01:37:32.475Z,13.98
2023-05-21T01:38:37.319Z,13.14
2023-05-21T01:39:39.874Z,14.10
2023-05-21T01:41:00.435Z,14.11
2023-05-21T01:41:58.721Z,14.08
2023-05-21T01:42:56.609Z,14.23
2023-05-21T01:43:57.580Z,14.02
2023-05-21T01:44:57.317Z,13.46
2023-05-21T01:45:57.362Z,13.18
2023-05-21T01:46:57.124Z,13.17
2023-05-21T01:47:56.638Z,13.19
2023-05-21T01:48:56.473Z,14.17
2023-05-21T01:49:53.537Z,14.18
2023-05-21T01:50:53.059Z,13.42
2023-05-21T01:51:50.023Z,14.10
2023-05-21T01:52:54.277Z,13.45
2023-05-21T01:53:51.311Z,13.62
2023-05-21T01:54:51.200Z,13.64
2023-05-21T01:55:48.520Z,13.56
2023-05-21T01:56:46.076Z,12.83
2023-05-21T01:57:42.848Z,13.92
2023-05-21T01:58:39.671Z,13.49
2023-05-21T01:59:36.946Z,14.03
2023-05-21T02:00:34.667Z,14.11
2023-05-21T02:01:31.703Z,14.09
2023-05-21T02:02:28.778Z,14.40
2023-05-21T02:03:27.424Z,14.11
2023-05-21T02:04:24.282Z,13.97
2023-05-21T02:05:21.045Z,12.80
2023-05-21T02:06:18.115Z,13.46
2023-05-21T02:07:15.137Z,13.79
2023-05-21T02:08:12.918Z,14.35
2023-05-21T02:09:09.749Z,14.18
2023-05-21T02:10:07.777Z,14.13
2023-05-21T02:11:04.559Z,13.07
2023-05-21T02:12:01.369Z,13.83
2023-05-21T02:12:59.369Z,12.80
2023-05-21T02:13:57.495Z,13.18
2023-05-21T02:14:54.423Z,13.86
2023-05-21T02:15:54.824Z,14.03
2023-05-21T02:16:52.605Z,13.56
2023-05-21T02:17:51.481Z,14.05
2023-05-21T02:18:51.515Z,13.51
2023-05-21T02:19:48.518Z,14.08
2023-05-21T02:20:45.431Z,14.37
2023-05-21T02:21:42.233Z,14.27
2023-05-21T02:22:39.166Z,14.11
2023-05-21T02:23:36.192Z,13.97
2023-05-21T02:24:33.173Z,13.38
2023-05-21T02:25:30.013Z,13.45
2023-05-21T02:26:27.441Z,13.23
2023-05-21T02:27:24.248Z,13.58
2023-05-21T02:28:21.419Z,14.34
2023-05-21T02:29:18.194Z,13.52
2023-05-21T02:30:16.295Z,14.31
2023-05-21T02:31:13.096Z,13.84
2023-05-21T02:32:09.839Z,13.33
2023-05-21T02:33:09.307Z,14.02
2023-05-21T02:34:08.129Z,13.40
2023-05-21T02:35:05.335Z,12.66
2023-05-21T02:36:02.152Z,13.90
2023-05-21T02:37:17.843Z,13.30
2023-05-21T02:38:19.357Z,13.09
2023-05-21T02:39:16.325Z,13.83
2023-05-21T02:40:13.579Z,13.71
2023-05-21T02:41:14.062Z,13.83
2023-05-21T02:42:11.044Z,13.68
2023-05-21T02:43:07.831Z,13.47
2023-05-21T02:44:04.811Z,13.02
2023-05-21T02:45:01.580Z,13.07
2023-05-21T02:45:58.330Z,13.23
2023-05-21T02:46:55.170Z,14.12
2023-05-21T02:47:52.080Z,13.61
2023-05-21T02:48:49.456Z,13.47
2023-05-21T02:49:46.699Z,12.77
2023-05-21T02:50:43.505Z,13.09
2023-05-21T02:51:40.328Z,12.96
2023-05-21T02:52:37.172Z,13.39
2023-05-21T02:53:34.004Z,13.41
2023-05-21T02:54:31.067Z,12.58
2023-05-21T02:55:27.881Z,13.58
2023-05-21T02:56:24.881Z,13.45
2023-05-21T02:57:21.649Z,13.34
2023-05-21T02:58:18.414Z,13.07
2023-05-21T02:59:15.291Z,13.60
2023-05-21T03:00:12.765Z,13.57
2023-05-21T03:01:09.766Z,13.68
2023-05-21T03:02:07.566Z,13.71
2023-05-21T03:03:04.589Z,13.87
2023-05-21T03:04:01.505Z,13.26
2023-05-21T03:04:58.855Z,13.13
2023-05-21T03:05:55.677Z,13.14
2023-05-21T03:06:54.989Z,13.67
2023-05-21T03:07:51.763Z,13.62
2023-05-21T03:08:48.520Z,13.74
2023-05-21T03:09:45.407Z,13.08
2023-05-21T03:10:42.252Z,13.09
2023-05-21T03:11:39.466Z,13.52
2023-05-21T03:12:36.546Z,13.95
2023-05-21T03:13:33.386Z,12.64
2023-05-21T03:14:30.127Z,12.74
2023-05-21T03:15:26.875Z,12.84
2023-05-21T03:16:23.632Z,13.21
2023-05-21T03:17:20.648Z,12.41
2023-05-21T03:18:17.448Z,13.14
2023-05-21T03:19:14.261Z,13.26
2023-05-21T03:20:17.134Z,12.70
2023-05-21T03:21:15.436Z,13.30
2023-05-21T03:22:12.329Z,12.31
2023-05-21T03:23:09.531Z,12.61
2023-05-21T03:24:06.988Z,12.18
2023-05-21T03:25:04.365Z,13.31
2023-05-21T03:26:02.400Z,13.18
2023-05-21T03:27:01.594Z,13.38
2023-05-21T03:27:58.681Z,13.56
2023-05-21T03:28:59.469Z,13.50
2023-05-21T03:29:56.314Z,13.35
2023-05-21T03:30:53.453Z,13.33
2023-05-21T03:31:51.508Z,13.26
2023-05-21T03:32:49.790Z,13.47
2023-05-21T03:33:46.768Z,12.83
2023-05-21T03:34:43.607Z,12.61
2023-05-21T03:35:40.487Z,13.39
2023-05-21T03:36:37.303Z,12.80
2023-05-21T03:37:34.090Z,13.45
2023-05-21T03:38:30.848Z,13.08
2023-05-21T03:39:27.681Z,12.92
2023-05-21T03:40:24.451Z,13.63
2023-05-21T03:41:21.358Z,13.08
2023-05-21T03:42:18.211Z,13.25
2023-05-21T03:43:15.085Z,12.90
2023-05-21T03:44:11.891Z,13.17
2023-05-21T03:45:09.095Z,13.11
2023-05-21T03:46:05.978Z,14.07
2023-05-21T03:47:02.782Z,14.17
2023-05-21T03:47:59.860Z,14.02
2023-05-21T03:48:58.328Z,14.25
2023-05-21T03:49:55.152Z,13.73
2023-05-21T03:50:51.943Z,14.41
2023-05-21T03:51:48.721Z,14.22
2023-05-21T03:52:45.521Z,13.51
2023-05-21T03:53:42.242Z,12.96
2023-05-21T03:54:39.048Z,14.52
2023-05-21T03:55:36.222Z,14.42
2023-05-21T03:56:33.432Z,14.42
2023-05-21T03:57:30.398Z,14.61
2023-05-21T03:58:28.202Z,13.69
2023-05-21T03:59:24.999Z,14.37
2023-05-21T04:00:21.791Z,14.60
2023-05-21T04:01:19.642Z,14.53
2023-05-21T04:02:16.612Z,13.66
2023-05-21T04:03:13.671Z,14.27
2023-05-21T04:04:10.771Z,14.17
2023-05-21T04:05:08.171Z,13.87
2023-05-21T04:06:05.176Z,14.61
2023-05-21T04:07:02.072Z,14.42
2023-05-21T04:08:00.272Z,14.09
2023-05-21T04:08:57.089Z,14.56
2023-05-21T04:09:53.836Z,14.45
2023-05-21T04:10:50.625Z,13.95
2023-05-21T04:11:48.027Z,14.05
2023-05-21T04:12:44.829Z,14.06
2023-05-21T04:13:41.656Z,14.06
2023-05-21T04:14:38.447Z,14.98
2023-05-21T04:15:35.681Z,14.89
2023-05-21T04:16:34.883Z,14.99
2023-05-21T04:17:31.826Z,14.36
2023-05-21T04:18:28.706Z,14.81
2023-05-21T04:19:25.720Z,14.57
2023-05-21T04:20:22.703Z,13.33
2023-05-21T04:21:19.560Z,14.02
2023-05-21T04:22:16.625Z,14.74
2023-05-21T04:23:13.450Z,14.93
2023-05-21T04:24:10.295Z,14.34
2023-05-21T04:25:07.330Z,14.88
2023-05-21T04:26:04.858Z,14.94
2023-05-21T04:27:01.761Z,15.02
2023-05-21T04:27:58.595Z,15.15
2023-05-21T04:28:55.574Z,14.11
2023-05-21T04:29:54.836Z,15.07
2023-05-21T04:30:51.751Z,14.37
2023-05-21T04:31:49.856Z,14.38
2023-05-21T04:32:48.305Z,14.57
2023-05-21T04:33:46.066Z,15.18
2023-05-21T04:34:43.217Z,15.53
2023-05-21T04:35:44.584Z,14.67
2023-05-21T04:36:41.929Z,15.12
2023-05-21T04:37:42.153Z,15.25
2023-05-21T04:38:42.012Z,14.64
2023-05-21T04:39:41.100Z,14.68
2023-05-21T04:40:37.986Z,14.03
2023-05-21T04:41:34.824Z,14.88
2023-05-21T04:42:33.094Z,15.53
2023-05-21T04:43:30.451Z,15.50
2023-05-21T04:44:27.290Z,14.89
2023-05-21T04:45:24.685Z,15.12
2023-05-21T04:46:25.256Z,15.58
2023-05-21T04:47:22.950Z,14.99
2023-05-21T04:48:20.519Z,14.92
2023-05-21T04:49:17.363Z,14.79
2023-05-21T04:50:14.239Z,15.20
2023-05-21T04:51:11.021Z,15.22
2023-05-21T04:52:08.508Z,15.40
2023-05-21T04:53:05.402Z,15.83
2023-05-21T04:54:03.524Z,15.41
2023-05-21T04:55:01.361Z,15.95
2023-05-21T04:55:59.484Z,15.91
2023-05-21T04:56:56.451Z,15.70
2023-05-21T04:57:53.503Z,16.25
2023-05-21T04:58:50.815Z,15.76
2023-05-21T04:59:47.834Z,16.56
2023-05-21T05:00:46.904Z,16.53
2023-05-21T05:01:44.119Z,15.11
2023-05-21T05:02:40.939Z,16.31
2023-05-21T05:03:38.251Z,16.54
2023-05-21T05:04:35.129Z,16.44
2023-05-21T05:05:32.034Z,15.63
2023-05-21T05:06:28.818Z,15.88
2023-05-21T05:07:25.796Z,16.33
2023-05-21T05:08:22.527Z,16.59
2023-05-21T05:09:21.698Z,16.40
2023-05-21T05:10:18.529Z,16.55
2023-05-21T05:11:15.492Z,16.45
2023-05-21T05:12:12.328Z,16.61
2023-05-21T05:13:09.258Z,16.50
2023-05-21T05:14:07.417Z,16.34
2023-05-21T05:15:04.395Z,16.58
2023-05-21T05:16:01.619Z,16.20
2023-05-21T05:17:00.870Z,16.13
2023-05-21T05:17:57.885Z,16.17
2023-05-21T05:18:54.735Z,16.95
2023-05-21T05:19:51.612Z,16.24
2023-05-21T05:20:48.425Z,17.20
2023-05-21T05:21:45.211Z,15.95
2023-05-21T05:22:42.002Z,16.73
2023-05-21T05:23:38.813Z,16.95
2023-05-21T05:24:35.613Z,16.37
2023-05-21T05:25:32.802Z,17.31
2023-05-21T05:26:29.649Z,15.83
2023-05-21T05:27:26.806Z,16.38
2023-05-21T05:28:23.702Z,17.24
2023-05-21T05:29:20.581Z,17.31
2023-05-21T05:30:17.482Z,17.31
2023-05-21T05:31:14.450Z,17.01
2023-05-21T05:32:11.392Z,16.87
2023-05-21T05:33:08.230Z,16.75
2023-05-21T05:34:05.062Z,16.59
2023-05-21T05:35:03.002Z,17.18
2023-05-21T05:36:02.744Z,17.14
2023-05-21T05:36:59.547Z,16.94
2023-05-21T05:37:56.630Z,16.96
2023-05-21T05:38:53.541Z,16.81
2023-05-21T05:39:50.585Z,16.30
2023-05-21T05:40:47.335Z,16.50
2023-05-21T05:41:44.157Z,17.45
2023-05-21T05:42:40.970Z,16.63
2023-05-21T05:43:37.873Z,16.65
2023-05-21T05:44:34.690Z,15.91
2023-05-21T05:45:31.440Z,16.79
2023-05-21T05:46:29.613Z,17.17
2023-05-21T05:47:26.475Z,17.34
2023-05-21T05:48:23.454Z,17.05
2023-05-21T05:49:20.253Z,16.50
2023-05-21T05:50:17.101Z,16.64
2023-05-21T05:51:15.467Z,16.68
2023-05-21T05:52:12.304Z,16.68
2023-05-21T05:53:09.061Z,16.74
2023-05-21T05:54:06.144Z,17.62
2023-05-21T05:55:03.148Z,17.88
2023-05-21T05:56:00.241Z,17.00
2023-05-21T05:56:57.043Z,17.51
2023-05-21T05:57:54.163Z,16.60
2023-05-21T05:58:51.205Z,17.60
2023-05-21T05:59:48.041Z,17.17
2023-05-21T06:00:44.913Z,17.33
2023-05-21T06:01:42.572Z,16.94
2023-05-21T06:02:39.547Z,17.24
2023-05-21T06:03:36.642Z,17.35
2023-05-21T06:04:33.634Z,17.87
2023-05-21T06:05:30.450Z,17.34
2023-05-21T06:06:27.284Z,17.41
2023-05-21T06:07:24.140Z,17.48
2023-05-21T06:08:21.203Z,17.89
2023-05-21T06:09:18.402Z,17.34
2023-05-21T06:10:15.315Z,17.00
2023-05-21T06:11:12.144Z,18.34
2023-05-21T06:12:12.259Z,18.54
2023-05-21T06:13:11.559Z,17.58
2023-05-21T06:14:08.348Z,18.37
2023-05-21T06:15:06.618Z,17.89
2023-05-21T06:16:04.201Z,18.47
2023-05-21T06:17:01.171Z,17.92
2023-05-21T06:17:58.038Z,18.29
2023-05-21T06:18:55.240Z,18.16
2023-05-21T06:19:52.228Z,18.25
2023-05-21T06:20:49.017Z,18.82
2023-05-21T06:21:45.878Z,18.91
2023-05-21T06:22:42.718Z,18.41
2023-05-21T06:23:39.974Z,17.60
2023-05-21T06:24:36.813Z,18.41
2023-05-21T06:25:34.018Z,18.48
2023-05-21T06:26:31.103Z,18.16
2023-05-21T06:27:27.900Z,18.61
2023-05-21T06:28:24.728Z,18.29
2023-05-21T06:29:21.879Z,18.60
2023-05-21T06:30:18.661Z,18.63
2023-05-21T06:31:16.281Z,19.44
2023-05-21T06:32:13.343Z,19.69
2023-05-21T06:33:10.269Z,19.04
2023-05-21T06:34:07.369Z,19.86
2023-05-21T06:35:04.606Z,19.95
2023-05-21T06:36:01.460Z,19.74
2023-05-21T06:36:58.255Z,19.54
2023-05-21T06:37:55.127Z,18.69
2023-05-21T06:38:52.037Z,18.95
2023-05-21T06:39:49.123Z,18.30
2023-05-21T06:40:47.971Z,19.17
2023-05-21T06:41:44.826Z,19.05
2023-05-21T06:42:41.594Z,19.15
2023-05-21T06:43:38.386Z,19.12
2023-05-21T06:44:35.151Z,18.71
2023-05-21T06:45:32.135Z,18.81
2023-05-21T06:46:29.199Z,18.92
2023-05-21T06:47:26.343Z,19.67
2023-05-21T06:48:23.312Z,18.88
2023-05-21T06:49:20.076Z,19.68
2023-05-21T06:50:16.922Z,19.45
2023-05-21T06:51:13.928Z,18.82
2023-05-21T06:52:11.300Z,18.64
2023-05-21T06:53:08.141Z,18.95
2023-05-21T06:54:04.979Z,19.51
2023-05-21T06:55:01.861Z,18.18
2023-05-21T06:55:58.630Z,19.97
2023-05-21T06:56:55.449Z,20.00
2023-05-21T06:57:52.331Z,19.11
2023-05-21T06:58:49.111Z,19.64
2023-05-21T06:59:46.083Z,19.73
2023-05-21T07:00:42.879Z,20.02
2023-05-21T07:01:42.584Z,18.87
2023-05-21T07:02:39.747Z,19.58
2023-05-21T07:03:36.923Z,19.16
2023-05-21T07:04:35.309Z,19.19
2023-05-21T07:05:32.185Z,18.65
2023-05-21T07:06:28.979Z,19.77
2023-05-21T07:07:25.929Z,19.27
2023-05-21T07:08:22.936Z,19.90
2023-05-21T07:09:19.788Z,19.30
2023-05-21T07:10:16.771Z,20.06
2023-05-21T07:11:13.617Z,20.51
2023-05-21T07:12:10.469Z,20.64
2023-05-21T07:13:07.225Z,20.67
2023-05-21T07:14:04.060Z,19.93
2023-05-21T07:15:00.937Z,20.43
2023-05-21T07:15:57.771Z,20.11
2023-05-21T07:16:54.734Z,20.10
2023-05-21T07:17:51.736Z,20.14
2023-05-21T07:18:48.648Z,20.41
2023-05-21T07:19:45.456Z,20.68
2023-05-21T07:20:43.918Z,20.15
2023-05-21T07:21:40.713Z,20.16
2023-05-21T07:22:39.322Z,20.77
2023-05-21T07:23:36.110Z,20.07
2023-05-21T07:24:32.920Z,19.85
2023-05-21T07:25:30.591Z,20.25
2023-05-21T07:26:27.408Z,20.07
2023-05-21T07:27:25.700Z,20.56
2023-05-21T07:28:22.982Z,20.18
2023-05-21T07:29:19.829Z,20.49
2023-05-21T07:30:16.821Z,21.02
2023-05-21T07:31:13.671Z,20.47
2023-05-21T07:32:10.618Z,21.10
2023-05-21T07:33:07.590Z,20.66
2023-05-21T07:34:04.537Z,21.47
2023-05-21T07:35:04.415Z,21.64
2023-05-21T07:36:01.522Z,21.58
2023-05-21T07:36:58.434Z,21.45
2023-05-21T07:37:55.298Z,21.71
2023-05-21T07:38:53.055Z,20.53
2023-05-21T07:39:49.881Z,21.82
2023-05-21T07:40:46.653Z,21.68
2023-05-21T07:41:43.634Z,21.58
2023-05-21T07:42:40.532Z,21.81
2023-05-21T07:43:37.455Z,22.02
2023-05-21T07:44:34.244Z,22.06
2023-05-21T07:45:31.015Z,21.36
2023-05-21T07:46:27.802Z,21.96
2023-05-21T07:47:24.818Z,21.78
2023-05-21T07:48:21.917Z,21.18
2023-05-21T07:49:18.713Z,21.41
2023-05-21T07:50:15.574Z,21.95
2023-05-21T07:51:12.789Z,22.18
2023-05-21T07:52:09.678Z,22.21
2023-05-21T07:53:06.736Z,21.97
2023-05-21T07:54:03.631Z,21.39
2023-05-21T07:55:01.642Z,22.03
2023-05-21T07:55:59.770Z,21.62
2023-05-21T07:56:56.584Z,22.18
2023-05-21T07:57:55.359Z,21.92
2023-05-21T07:58:52.144Z,21.48
2023-05-21T07:59:48.949Z,20.79
2023-05-21T08:00:47.616Z,21.23
2023-05-21T08:01:44.453Z,22.20
2023-05-21T08:02:41.469Z,21.16
2023-05-21T08:03:38.651Z,21.61
2023-05-21T08:04:37.442Z,20.73
2023-05-21T08:05:35.939Z,21.55
2023-05-21T08:06:37.654Z,20.64
2023-05-21T08:07:34.534Z,20.72
2023-05-21T08:08:31.417Z,21.90
2023-05-21T08:09:28.409Z,21.10
2023-05-21T08:10:25.226Z,21.90
2023-05-21T08:11:22.032Z,21.25
2023-05-21T08:12:19.756Z,21.91
2023-05-21T08:13:17.775Z,21.29
2023-05-21T08:14:14.639Z,21.46
2023-05-21T08:15:11.685Z,21.27
2023-05-21T08:16:08.649Z,20.05
2023-05-21T08:17:05.695Z,21.80
2023-05-21T08:18:02.561Z,21.36
2023-05-21T08:18:59.518Z,20.73
2023-05-21T08:19:56.559Z,20.83
2023-05-21T08:20:53.350Z,21.50
2023-05-21T08:21:52.724Z,20.78
2023-05-21T08:22:50.028Z,20.37
2023-05-21T08:23:47.013Z,21.40
2023-05-21T08:24:43.831Z,20.91
2023-05-21T08:25:40.746Z,21.49
2023-05-21T08:26:37.553Z,21.47
2023-05-21T08:27:34.394Z,21.60
2023-05-21T08:28:31.442Z,22.31
2023-05-21T08:29:28.283Z,22.06
2023-05-21T08:30:25.247Z,22.80
2023-05-21T08:31:22.096Z,22.95
2023-05-21T08:32:19.093Z,22.64
2023-05-21T08:33:15.973Z,23.41
2023-05-21T08:34:13.029Z,23.06
2023-05-21T08:35:10.174Z,23.33
2023-05-21T08:36:07.859Z,22.35
2023-05-21T08:37:04.858Z,22.50
2023-05-21T08:38:01.766Z,21.80
2023-05-21T08:38:58.555Z,21.53
2023-05-21T08:39:55.315Z,21.84
2023-05-21T08:40:55.078Z,22.13
2023-05-21T08:42:02.756Z,22.38
2023-05-21T08:43:01.360Z,22.20
2023-05-21T08:44:02.906Z,22.19
2023-05-21T08:45:01.127Z,21.90
2023-05-21T08:46:03.731Z,22.37
2023-05-21T08:47:05.768Z,21.18
2023-05-21T08:48:03.609Z,21.39
2023-05-21T08:49:03.494Z,22.24
2023-05-21T08:50:11.065Z,21.92
2023-05-21T08:51:07.961Z,22.26
2023-05-21T08:52:06.201Z,21.55
2023-05-21T08:53:12.700Z,22.29
2023-05-21T08:54:20.777Z,22.09
2023-05-21T08:55:18.464Z,22.76
2023-05-21T08:56:17.956Z,22.54
2023-05-21T08:57:17.344Z,22.92
2023-05-21T08:58:14.771Z,22.77
2023-05-21T08:59:12.036Z,22.74
2023-05-21T09:00:09.688Z,22.76
2023-05-21T09:01:06.864Z,23.32
2023-05-21T09:02:05.131Z,23.61
2023-05-21T09:03:02.826Z,23.06
2023-05-21T09:04:18.992Z,22.38
2023-05-21T09:05:17.651Z,22.57
2023-05-21T09:06:15.085Z,23.11
2023-05-21T09:07:11.904Z,23.43
2023-05-21T09:08:29.840Z,22.90
2023-05-21T09:09:34.855Z,22.88
2023-05-21T09:10:37.363Z,22.67
2023-05-21T09:11:34.372Z,22.67
2023-05-21T09:12:32.748Z,23.49
2023-05-21T09:13:32.800Z,23.79
2023-05-21T09:14:29.643Z,23.54
2023-05-21T09:15:27.231Z,23.36
2023-05-21T09:16:24.057Z,22.73
2023-05-21T09:17:20.961Z,23.38
2023-05-21T09:18:17.839Z,22.96
2023-05-21T09:19:14.684Z,21.84
2023-05-21T09:20:17.536Z,23.41
2023-05-21T09:21:43.375Z,22.44
2023-05-21T09:22:41.508Z,23.53
2023-05-21T09:23:38.383Z,23.40
2023-05-21T09:24:36.457Z,23.17
2023-05-21T09:25:34.969Z,23.10
2023-05-21T09:26:32.160Z,23.28
2023-05-21T09:27:29.034Z,23.45
2023-05-21T09:28:25.966Z,22.95
2023-05-21T09:29:22.774Z,23.34
2023-05-21T09:30:22.587Z,23.95
2023-05-21T09:31:24.240Z,23.49
2023-05-21T09:32:21.112Z,24.14
2023-05-21T09:33:29.803Z,23.71
2023-05-21T09:34:26.727Z,24.00
2023-05-21T09:35:24.097Z,23.67
2023-05-21T09:36:21.997Z,23.50
2023-05-21T09:37:27.142Z,22.99
2023-05-21T09:38:26.401Z,23.02
2023-05-21T09:39:33.533Z,22.09
2023-05-21T09:40:30.694Z,23.39
2023-05-21T09:41:35.792Z,23.52
2023-05-21T09:42:33.278Z,24.05
2023-05-21T09:43:31.219Z,23.28
2023-05-21T09:44:28.425Z,23.39
2023-05-21T09:45:27.758Z,23.28
2023-05-21T09:46:27.418Z,22.80
2023-05-21T09:47:24.260Z,23.63
2023-05-21T09:48:44.390Z,23.85
2023-05-21T09:49:44.253Z,23.98
2023-05-21T09:50:41.032Z,22.96
2023-05-21T09:51:39.136Z,24.12
2023-05-21T09:52:41.899Z,23.64
2023-05-21T09:53:53.146Z,23.72
2023-05-21T09:54:52.793Z,23.66
2023-05-21T09:55:57.729Z,24.22
2023-05-21T09:56:54.574Z,24.16
2023-05-21T09:57:52.157Z,24.38
2023-05-21T09:58:54.899Z,24.03
2023-05-21T09:59:52.040Z,24.31
2023-05-21T10:00:48.936Z,23.47
2023-05-21T10:02:46.474Z,23.10
2023-05-21T10:03:50.737Z,23.16
2023-05-21T10:04:50.462Z,22.94
2023-05-21T10:05:47.517Z,22.74
2023-05-21T10:06:47.867Z,23.14
2023-05-21T10:08:04.964Z,22.84
2023-05-21T10:09:10.625Z,23.59
2023-05-21T10:10:13.886Z,23.80
2023-05-21T10:11:12.330Z,23.32
2023-05-21T10:12:10.891Z,23.90
2023-05-21T10:13:12.546Z,24.26
2023-05-21T10:14:21.085Z,23.31
2023-05-21T10:15:24.858Z,23.98
2023-05-21T10:16:23.125Z,23.82
2023-05-21T10:17:20.667Z,23.21
2023-05-21T10:18:21.343Z,23.94
2023-05-21T10:19:20.326Z,23.84
2023-05-21T10:20:17.502Z,23.82
2023-05-21T10:21:15.273Z,23.77
2023-05-21T10:22:13.947Z,23.71
2023-05-21T10:23:11.190Z,24.04
2023-05-21T10:24:11.277Z,23.52
2023-05-21T10:25:09.102Z,24.32
2023-05-21T10:26:08.041Z,24.72
2023-05-21T10:27:07.180Z,24.62
2023-05-21T10:28:06.959Z,24.78
2023-05-21T10:29:03.892Z,23.84
2023-05-21T10:30:00.755Z,24.26
2023-05-21T10:30:58.696Z,23.94
2023-05-21T10:31:56.622Z,24.43
2023-05-21T10:32:56.032Z,24.34
2023-05-21T10:33:55.452Z,23.59
2023-05-21T10:34:54.317Z,24.33
2023-05-21T10:35:53.262Z,23.19
2023-05-21T10:36:52.678Z,23.01
2023-05-21T10:37:50.675Z,22.73
2023-05-21T10:38:47.735Z,23.26
2023-05-21T10:39:45.999Z,23.92
2023-05-21T10:40:43.350Z,24.20
2023-05-21T10:41:58.990Z,24.13
2023-05-21T10:43:16.991Z,24.60
2023-05-21T10:44:22.099Z,24.53
2023-05-21T10:45:47.970Z,23.41
2023-05-21T10:47:09.389Z,24.23
2023-05-21T10:48:12.509Z,23.98
2023-05-21T10:49:53.525Z,23.88
2023-05-21T10:50:56.786Z,23.48
2023-05-21T10:52:14.522Z,23.83
2023-05-21T10:53:27.780Z,23.44
2023-05-21T10:55:01.920Z,23.42
2023-05-21T10:56:13.567Z,23.21
2023-05-21T10:57:51.934Z,23.21
2023-05-21T10:58:51.421Z,23.46
2023-05-21T10:59:49.498Z,22.70
2023-05-21T11:00:46.725Z,22.62
2023-05-21T11:01:45.288Z,23.25
2023-05-21T11:02:43.208Z,23.44
2023-05-21T11:03:40.343Z,23.31
2023-05-21T11:04:40.119Z,22.93
2023-05-21T11:05:41.359Z,23.14
2023-05-21T11:06:38.242Z,23.34
2023-05-21T11:07:58.364Z,23.52
2023-05-21T11:08:55.856Z,23.51
2023-05-21T11:09:52.991Z,23.61
2023-05-21T11:11:00.375Z,22.92
2023-05-21T11:11:59.263Z,22.92
2023-05-21T11:13:11.005Z,23.38
2023-05-21T11:14:36.496Z,23.35
2023-05-21T11:15:59.387Z,23.21
2023-05-21T11:16:57.239Z,21.17
2023-05-21T11:17:57.072Z,22.76
2023-05-21T11:18:55.069Z,23.11
2023-05-21T11:19:52.019Z,23.07
2023-05-21T11:20:52.104Z,22.10
2023-05-21T11:21:51.876Z,22.89
2023-05-21T11:22:49.520Z,22.16
2023-05-21T11:23:56.758Z,22.36
2023-05-21T11:24:56.142Z,22.67
2023-05-21T11:26:02.427Z,22.67
2023-05-21T11:27:02.387Z,22.53
2023-05-21T11:28:06.010Z,22.23
2023-05-21T11:29:07.026Z,22.85
2023-05-21T11:30:14.601Z,22.92
2023-05-21T11:31:27.877Z,23.01
2023-05-21T11:32:24.867Z,22.56
2023-05-21T11:33:21.718Z,23.05
2023-05-21T11:34:28.697Z,23.11
2023-05-21T11:35:27.720Z,22.51
2023-05-21T11:36:24.481Z,22.73
2023-05-21T11:37:23.407Z,23.34
2023-05-21T11:38:20.997Z,22.61
2023-05-21T11:39:22.482Z,22.42
2023-05-21T11:40:23.952Z,22.71
2023-05-21T11:41:22.266Z,20.43
2023-05-21T11:42:39.716Z,22.69
2023-05-21T11:43:40.865Z,21.24
2023-05-21T11:44:42.686Z,22.65
2023-05-21T11:45:39.570Z,22.15
2023-05-21T11:46:37.625Z,22.13
2023-05-21T11:47:34.532Z,22.46
2023-05-21T11:48:32.645Z,22.29
2023-05-21T11:49:31.232Z,22.48
2023-05-21T11:50:30.822Z,21.41
2023-05-21T11:51:27.920Z,22.82
2023-05-21T11:52:25.450Z,20.73
2023-05-21T11:53:22.349Z,22.20
2023-05-21T11:54:19.245Z,21.70
2023-05-21T11:55:21.075Z,23.06
2023-05-21T11:56:18.653Z,22.52
2023-05-21T11:57:17.729Z,22.54
2023-05-21T11:58:16.451Z,22.98
2023-05-21T11:59:17.125Z,23.44
2023-05-21T12:00:17.082Z,23.03
2023-05-21T12:01:25.173Z,23.04
2023-05-21T12:02:22.986Z,22.01
2023-05-21T12:03:26.885Z,22.71
2023-05-21T12:04:24.138Z,22.13
2023-05-21T12:05:21.454Z,22.20
2023-05-21T12:06:18.592Z,22.71
2023-05-21T12:07:17.721Z,22.41
2023-05-21T12:08:27.195Z,21.69
2023-05-21T12:09:24.608Z,21.71
2023-05-21T12:10:22.862Z,21.52
2023-05-21T12:11:21.825Z,22.31
2023-05-21T12:12:21.600Z,22.60
2023-05-21T12:13:18.522Z,22.46
2023-05-21T12:14:15.536Z,21.49
2023-05-21T12:15:13.525Z,21.65
2023-05-21T12:16:10.748Z,22.42
2023-05-21T12:17:10.668Z,22.33
2023-05-21T12:18:07.599Z,22.49
2023-05-21T12:19:05.492Z,22.60
2023-05-21T12:20:02.526Z,22.12
2023-05-21T12:21:00.714Z,21.68
2023-05-21T12:21:57.678Z,22.18
2023-05-21T12:22:54.478Z,21.54
2023-05-21T12:23:51.296Z,21.94
2023-05-21T12:24:51.054Z,21.90
2023-05-21T12:25:48.001Z,20.97
2023-05-21T12:26:46.073Z,20.31
2023-05-21T12:27:45.057Z,21.97
2023-05-21T12:28:41.952Z,22.21
2023-05-21T12:29:43.680Z,21.80
2023-05-21T12:30:40.567Z,21.84
2023-05-21T12:31:50.566Z,22.12
2023-05-21T12:32:49.381Z,22.10
2023-05-21T12:33:49.385Z,22.21
2023-05-21T12:34:47.671Z,22.69
2023-05-21T12:35:50.176Z,21.98
2023-05-21T12:36:48.409Z,22.12
2023-05-21T12:37:45.296Z,22.34
2023-05-21T12:38:42.767Z,22.45